Big Moose, New York
Current Conditions -  °F | °C
As of 3:37 AM on Friday 19 Dec 2014 (Local Time) from KGTB Reporting Station
Light Snow Light Snow  
Wind Chill: -10°   Ceiling: 500
Heat Index: -5°   Visibility: 4mi
Dew Point: -7°   Wind: 7mph
Humidity: 86%   Direction: 330°NNW
Pressure: 30.02"   Gusts: NA
Location:  43.8364°N, 74.9967°W
Report Text: KGTB 190837Z 33006KT 4SM -SN BR BKN005 OVC011 M05/M07 A3002 RMK AO2A BKN V OVC
Loading
Personal Weather Stations






























Interactive Weather Map New forecast layout! Learn more

10-Day Weather Forecast

Advertisements
Track Severe Weather on mobile